createdAt,value
2017-05-24T00:01:32.696Z,0
2017-05-24T00:02:13.112Z,0
2017-05-24T00:02:53.518Z,0
2017-05-24T00:03:33.944Z,0
2017-05-24T00:04:14.305Z,0
2017-05-24T00:04:54.745Z,0
2017-05-24T00:05:35.148Z,0
2017-05-24T00:06:15.551Z,0
2017-05-24T00:06:55.968Z,0
2017-05-24T00:07:36.369Z,0
2017-05-24T00:08:16.779Z,0
2017-05-24T00:08:57.218Z,0
2017-05-24T00:09:37.632Z,0
2017-05-24T00:10:18.027Z,0
2017-05-24T00:10:58.501Z,0
2017-05-24T00:11:38.896Z,0
2017-05-24T00:12:19.372Z,0
2017-05-24T00:12:59.819Z,0
2017-05-24T00:13:40.264Z,0
2017-05-24T00:14:20.661Z,0
2017-05-24T00:15:01.039Z,0
2017-05-24T00:15:41.447Z,0
2017-05-24T00:16:21.886Z,0
2017-05-24T00:17:02.362Z,0
2017-05-24T00:17:42.782Z,0
2017-05-24T00:18:23.200Z,0
2017-05-24T00:19:03.605Z,0
2017-05-24T00:19:44.033Z,0
2017-05-24T00:20:24.452Z,0
2017-05-24T00:21:04.885Z,0
2017-05-24T00:21:45.285Z,0
2017-05-24T00:22:25.691Z,0
2017-05-24T00:23:06.120Z,0
2017-05-24T00:23:46.557Z,0
2017-05-24T00:24:26.984Z,0
2017-05-24T00:25:07.398Z,0
2017-05-24T00:25:47.793Z,0
2017-05-24T00:26:28.194Z,0
2017-05-24T00:27:08.624Z,0
2017-05-24T00:27:49.051Z,0
2017-05-24T00:28:29.480Z,0
2017-05-24T00:29:09.917Z,0
2017-05-24T00:29:50.333Z,0
2017-05-24T00:30:30.714Z,0
2017-05-24T00:31:11.138Z,0
2017-05-24T00:31:52.030Z,0
2017-05-24T00:32:32.433Z,0
2017-05-24T00:33:12.860Z,0
2017-05-24T00:33:53.308Z,0
2017-05-24T00:34:33.765Z,0
2017-05-24T00:35:14.175Z,0
2017-05-24T00:35:54.627Z,0
2017-05-24T00:36:35.015Z,0
2017-05-24T00:37:15.437Z,0
2017-05-24T00:37:55.883Z,0
2017-05-24T00:38:36.287Z,0
2017-05-24T00:39:16.704Z,0
2017-05-24T00:39:57.110Z,0
2017-05-24T00:40:37.571Z,0
2017-05-24T00:41:17.971Z,0
2017-05-24T00:41:58.395Z,0
2017-05-24T00:42:38.896Z,0
2017-05-24T00:43:19.271Z,0
2017-05-24T00:43:59.721Z,0
2017-05-24T00:44:40.108Z,0
2017-05-24T00:45:20.520Z,0
2017-05-24T00:46:00.917Z,0
2017-05-24T00:46:41.360Z,0
2017-05-24T00:47:21.757Z,0
2017-05-24T00:48:02.184Z,0
2017-05-24T00:48:42.604Z,0
2017-05-24T00:49:22.997Z,0
2017-05-24T00:50:03.417Z,0
2017-05-24T00:50:43.835Z,0
2017-05-24T00:51:24.280Z,0
2017-05-24T00:52:04.683Z,0
2017-05-24T00:52:45.075Z,0
2017-05-24T00:53:25.477Z,0
2017-05-24T00:54:05.893Z,0
2017-05-24T00:54:46.303Z,0
2017-05-24T00:55:26.774Z,0
2017-05-24T00:56:07.156Z,0
2017-05-24T00:56:47.603Z,0
2017-05-24T00:57:27.988Z,0
2017-05-24T00:58:09.060Z,0
2017-05-24T00:58:49.527Z,0
2017-05-24T00:59:30.622Z,0
2017-05-24T01:00:11.182Z,0
2017-05-24T01:00:51.475Z,0
2017-05-24T01:01:34.698Z,0
2017-05-24T01:02:15.545Z,0
2017-05-24T01:02:55.990Z,0
2017-05-24T01:03:36.818Z,0
2017-05-24T01:04:17.294Z,0
2017-05-24T01:04:57.628Z,0
2017-05-24T01:05:38.066Z,0
2017-05-24T01:06:18.478Z,0
2017-05-24T01:06:59.017Z,0
2017-05-24T01:07:39.462Z,0
2017-05-24T01:08:20.006Z,0
2017-05-24T01:09:00.624Z,0
2017-05-24T01:09:40.980Z,0
2017-05-24T01:10:21.381Z,0
2017-05-24T01:11:01.814Z,0
2017-05-24T01:11:42.239Z,0
2017-05-24T01:12:22.640Z,0
2017-05-24T01:13:03.044Z,0
2017-05-24T01:13:43.469Z,0
2017-05-24T01:14:23.898Z,0
2017-05-24T01:15:04.312Z,0
2017-05-24T01:15:45.514Z,0
2017-05-24T01:16:25.962Z,0
2017-05-24T01:17:06.454Z,0
2017-05-24T01:17:46.822Z,0
2017-05-24T01:18:27.245Z,0
2017-05-24T01:19:07.681Z,0
2017-05-24T01:19:48.127Z,0
2017-05-24T01:20:29.261Z,0
2017-05-24T01:21:09.683Z,0
2017-05-24T01:21:50.112Z,0
2017-05-24T01:22:30.648Z,0
2017-05-24T01:23:10.975Z,0
2017-05-24T01:23:52.249Z,0
2017-05-24T01:24:32.686Z,0
2017-05-24T01:25:13.064Z,0
2017-05-24T01:25:53.529Z,0
2017-05-24T01:26:33.966Z,0
2017-05-24T01:27:15.274Z,0
2017-05-24T01:27:55.722Z,0
2017-05-24T01:28:36.212Z,0
2017-05-24T01:29:16.602Z,0
2017-05-24T01:29:57.012Z,0
2017-05-24T01:30:37.451Z,0
2017-05-24T01:31:17.884Z,0
2017-05-24T01:31:58.877Z,0
2017-05-24T01:32:39.304Z,0
2017-05-24T01:33:19.749Z,0
2017-05-24T01:34:00.169Z,0
2017-05-24T01:34:41.569Z,0
2017-05-24T01:35:21.942Z,0
2017-05-24T01:36:02.365Z,0
2017-05-24T01:36:42.755Z,0
2017-05-24T01:37:25.034Z,0
2017-05-24T01:38:06.070Z,0
2017-05-24T01:40:34.862Z,0
2017-05-24T01:41:15.279Z,0
2017-05-24T01:41:55.702Z,0
2017-05-24T01:42:36.200Z,0
2017-05-24T01:43:16.579Z,0
2017-05-24T01:43:57.925Z,0
2017-05-24T01:44:39.203Z,0
2017-05-24T01:45:19.620Z,0
2017-05-24T01:46:00.061Z,0
2017-05-24T01:48:28.060Z,0
2017-05-24T01:49:08.449Z,0
2017-05-24T01:49:49.807Z,0
2017-05-24T01:50:30.179Z,0
2017-05-24T01:51:10.625Z,0
2017-05-24T01:55:20.312Z,0
2017-05-24T01:56:00.729Z,0
2017-05-24T01:56:41.141Z,0
2017-05-24T01:57:21.620Z,0
2017-05-24T01:58:02.052Z,0
2017-05-24T01:58:43.431Z,0
2017-05-24T02:01:13.187Z,0
2017-05-24T02:03:37.314Z,0
2017-05-24T02:04:18.282Z,0
2017-05-24T02:04:58.745Z,0
2017-05-24T02:05:39.175Z,0
2017-05-24T02:06:19.572Z,0
2017-05-24T02:07:00.032Z,0
2017-05-24T02:07:40.464Z,0
2017-05-24T02:08:21.420Z,0
2017-05-24T02:09:02.424Z,0
2017-05-24T02:09:42.867Z,0
2017-05-24T02:10:23.241Z,0
2017-05-24T02:11:03.707Z,0
2017-05-24T02:11:44.116Z,0
2017-05-24T02:12:24.551Z,0
2017-05-24T02:13:04.944Z,0
2017-05-24T02:13:45.355Z,0
2017-05-24T02:14:25.775Z,0
2017-05-24T02:15:06.146Z,0
2017-05-24T02:19:51.408Z,0
2017-05-24T02:20:32.733Z,0
2017-05-24T02:21:14.659Z,0
2017-05-24T02:21:55.698Z,0
2017-05-24T02:22:36.957Z,0
2017-05-24T02:23:17.354Z,0
2017-05-24T02:23:57.778Z,0
2017-05-24T02:24:38.207Z,0
2017-05-24T02:25:18.675Z,0
2017-05-24T02:25:59.053Z,0
2017-05-24T02:26:39.489Z,0
2017-05-24T02:27:19.929Z,0
2017-05-24T02:28:00.347Z,0
2017-05-24T02:28:40.797Z,0
2017-05-24T02:29:21.227Z,0
2017-05-24T02:30:01.614Z,0
2017-05-24T02:30:42.070Z,0
2017-05-24T02:31:22.484Z,0
2017-05-24T02:32:02.855Z,0
2017-05-24T02:32:43.328Z,0
2017-05-24T02:33:23.703Z,0
2017-05-24T02:34:04.153Z,0
2017-05-24T02:34:44.591Z,0
2017-05-24T02:35:25.003Z,0
2017-05-24T02:36:05.425Z,0
2017-05-24T02:36:45.897Z,0
2017-05-24T02:37:26.254Z,0
2017-05-24T02:38:06.688Z,0
2017-05-24T02:38:47.095Z,0
2017-05-24T02:39:28.154Z,0
2017-05-24T02:40:08.552Z,0
2017-05-24T02:40:48.966Z,0
2017-05-24T02:41:29.371Z,0
2017-05-24T02:42:09.799Z,0
2017-05-24T02:42:50.239Z,0
2017-05-24T02:43:30.673Z,0
2017-05-24T02:44:11.045Z,0
2017-05-24T02:44:51.446Z,0
2017-05-24T02:45:31.913Z,0
2017-05-24T02:46:12.289Z,0
2017-05-24T02:46:52.691Z,0
2017-05-24T02:47:33.093Z,0
2017-05-24T02:48:13.523Z,0
2017-05-24T02:48:53.939Z,0
2017-05-24T02:49:34.311Z,0
2017-05-24T02:50:14.709Z,0
2017-05-24T02:50:55.149Z,0
2017-05-24T02:51:35.634Z,0
2017-05-24T02:52:15.987Z,0
2017-05-24T02:52:56.386Z,0
2017-05-24T02:53:36.985Z,0
2017-05-24T02:54:17.413Z,0
2017-05-24T02:54:57.798Z,0
2017-05-24T02:55:38.276Z,0
2017-05-24T02:56:18.692Z,0
2017-05-24T02:56:59.084Z,0
2017-05-24T02:57:39.494Z,0
2017-05-24T02:58:19.956Z,0
2017-05-24T02:59:00.317Z,0
2017-05-24T02:59:40.759Z,0
2017-05-24T03:00:21.222Z,0
2017-05-24T03:01:01.615Z,0
2017-05-24T03:01:42.045Z,0
2017-05-24T03:02:22.482Z,0
2017-05-24T03:03:02.853Z,0
2017-05-24T03:03:43.299Z,0
2017-05-24T03:04:23.710Z,0
2017-05-24T03:05:04.104Z,0
2017-05-24T03:05:44.585Z,0
2017-05-24T03:06:24.995Z,0
2017-05-24T03:07:05.377Z,0
2017-05-24T03:07:45.757Z,0
2017-05-24T03:08:26.201Z,0
2017-05-24T03:09:07.269Z,0
2017-05-24T03:09:47.745Z,0
2017-05-24T03:10:28.129Z,0
2017-05-24T03:11:08.614Z,0
2017-05-24T03:11:49.010Z,0
2017-05-24T03:12:29.421Z,0
2017-05-24T03:13:10.803Z,0
2017-05-24T03:13:51.279Z,0
2017-05-24T03:14:32.457Z,0
2017-05-24T03:15:15.644Z,0
2017-05-24T03:15:56.078Z,0
2017-05-24T03:16:37.213Z,0
2017-05-24T03:17:20.150Z,0
2017-05-24T03:18:00.557Z,0
2017-05-24T03:18:40.997Z,0
2017-05-24T03:19:22.183Z,0
2017-05-24T03:20:03.165Z,5
2017-05-24T03:20:43.632Z,5
2017-05-24T03:21:24.027Z,5
2017-05-24T03:22:04.489Z,5
2017-05-24T03:22:44.893Z,5
2017-05-24T03:23:25.313Z,5
2017-05-24T03:24:05.761Z,5
2017-05-24T03:24:46.179Z,5
2017-05-24T03:25:26.526Z,5
2017-05-24T03:26:06.937Z,5
2017-05-24T03:26:47.354Z,5
2017-05-24T03:27:27.741Z,5
2017-05-24T03:28:08.239Z,5
2017-05-24T03:28:48.597Z,10
2017-05-24T03:29:28.972Z,10
2017-05-24T03:30:09.389Z,10
2017-05-24T03:30:49.776Z,10
2017-05-24T03:31:30.204Z,10
2017-05-24T03:32:10.641Z,10
2017-05-24T03:32:51.038Z,10
2017-05-24T03:33:31.482Z,10
2017-05-24T03:34:11.861Z,10
2017-05-24T03:34:52.298Z,15
2017-05-24T03:35:32.702Z,15
2017-05-24T03:36:13.121Z,15
2017-05-24T03:36:53.574Z,15
2017-05-24T03:37:33.999Z,15
2017-05-24T03:38:14.347Z,15
2017-05-24T03:38:54.839Z,15
2017-05-24T03:39:35.243Z,15
2017-05-24T03:40:15.703Z,20
2017-05-24T03:40:56.980Z,20
2017-05-24T03:41:37.388Z,20
2017-05-24T03:42:17.816Z,20
2017-05-24T03:42:58.189Z,20
2017-05-24T03:43:38.589Z,20
2017-05-24T03:44:18.995Z,20
2017-05-24T03:44:59.990Z,20
2017-05-24T03:45:40.401Z,20
2017-05-24T03:46:20.854Z,25
2017-05-24T03:47:01.235Z,25
2017-05-24T03:47:41.673Z,25
2017-05-24T03:48:22.099Z,25
2017-05-24T03:49:02.486Z,25
2017-05-24T03:49:42.930Z,25
2017-05-24T03:50:23.391Z,30
2017-05-24T03:51:03.765Z,30
2017-05-24T03:51:44.207Z,30
2017-05-24T03:52:24.608Z,30
2017-05-24T03:53:05.040Z,30
2017-05-24T03:53:45.487Z,30
2017-05-24T03:54:25.876Z,30
2017-05-24T03:55:06.340Z,35
2017-05-24T03:55:46.781Z,35
2017-05-24T03:56:27.180Z,35
2017-05-24T03:57:07.565Z,35
2017-05-24T03:57:47.997Z,35
2017-05-24T03:58:28.374Z,35
2017-05-24T03:59:08.799Z,40
2017-05-24T03:59:49.220Z,40
2017-05-24T04:00:29.635Z,40
2017-05-24T04:01:10.070Z,40
2017-05-24T04:01:50.491Z,40
2017-05-24T04:02:30.898Z,40
2017-05-24T04:03:12.155Z,45
2017-05-24T04:03:52.598Z,45
2017-05-24T04:04:32.999Z,45
2017-05-24T04:05:13.388Z,45
2017-05-24T04:05:53.840Z,45
2017-05-24T04:06:34.239Z,45
2017-05-24T04:07:14.653Z,50
2017-05-24T04:07:55.077Z,50
2017-05-24T04:08:35.501Z,50
2017-05-24T04:09:16.016Z,50
2017-05-24T04:09:56.555Z,50
2017-05-24T04:10:39.828Z,55
2017-05-24T04:11:20.229Z,55
2017-05-24T04:12:00.608Z,55
2017-05-24T04:12:41.030Z,55
2017-05-24T04:13:21.410Z,55
2017-05-24T04:14:01.917Z,55
2017-05-24T04:14:42.300Z,55
2017-05-24T04:15:22.721Z,60
2017-05-24T04:16:03.129Z,60
2017-05-24T04:16:43.568Z,60
2017-05-24T04:17:24.004Z,60
2017-05-24T04:18:04.413Z,60
2017-05-24T04:18:44.790Z,60
2017-05-24T04:19:25.220Z,60
2017-05-24T04:20:05.626Z,65
2017-05-24T04:20:46.069Z,65
2017-05-24T04:21:26.504Z,65
2017-05-24T04:22:06.905Z,65
2017-05-24T04:24:24.986Z,75
2017-05-24T04:25:05.432Z,75
2017-05-24T04:25:45.844Z,75
2017-05-24T04:28:19.064Z,80
2017-05-24T04:28:59.524Z,80
2017-05-24T04:29:39.915Z,80
2017-05-24T04:30:20.321Z,85
2017-05-24T04:31:00.753Z,90
2017-05-24T04:31:41.190Z,95
2017-05-24T04:32:21.603Z,100
2017-05-24T04:33:02.006Z,105
2017-05-24T04:33:42.420Z,110
2017-05-24T04:34:22.798Z,115
2017-05-24T04:35:03.190Z,120
2017-05-24T04:35:43.630Z,120
2017-05-24T04:36:24.004Z,125
2017-05-24T04:37:04.461Z,125
2017-05-24T04:37:44.875Z,130
2017-05-24T04:38:25.256Z,130
2017-05-24T04:39:05.642Z,135
2017-05-24T04:39:46.060Z,135
2017-05-24T04:40:26.487Z,140
2017-05-24T04:41:06.882Z,140
2017-05-24T04:41:47.291Z,140
2017-05-24T04:42:27.728Z,140
2017-05-24T04:43:08.159Z,140
2017-05-24T04:43:48.615Z,140
2017-05-24T04:44:28.997Z,145
2017-05-24T04:45:09.468Z,145
2017-05-24T04:45:49.828Z,145
2017-05-24T04:46:30.286Z,145
2017-05-24T04:47:10.634Z,150
2017-05-24T04:47:51.116Z,150
2017-05-24T04:48:31.585Z,150
2017-05-24T04:49:11.992Z,155
2017-05-24T04:49:52.372Z,155
2017-05-24T04:50:32.822Z,155
2017-05-24T04:51:13.246Z,160
2017-05-24T04:51:53.640Z,160
2017-05-24T04:52:34.057Z,160
2017-05-24T04:53:14.475Z,165
2017-05-24T04:53:54.860Z,165
2017-05-24T04:54:35.223Z,170
2017-05-24T04:55:15.659Z,170
2017-05-24T04:55:56.097Z,170
2017-05-24T04:56:36.544Z,175
2017-05-24T04:57:16.983Z,175
2017-05-24T04:57:57.400Z,180
2017-05-24T04:58:37.797Z,180
2017-05-24T04:59:18.240Z,185
2017-05-24T04:59:58.668Z,185
2017-05-24T05:00:39.095Z,185
2017-05-24T05:01:19.498Z,190
2017-05-24T05:01:59.923Z,190
2017-05-24T05:02:40.406Z,195
2017-05-24T05:03:20.845Z,195
2017-05-24T05:04:01.269Z,195
2017-05-24T05:04:42.590Z,195
2017-05-24T05:05:22.981Z,195
2017-05-24T05:06:03.366Z,200
2017-05-24T05:06:43.782Z,200
2017-05-24T05:07:25.172Z,200
2017-05-24T05:08:06.504Z,205
2017-05-24T05:08:47.268Z,205
2017-05-24T05:09:27.531Z,210
2017-05-24T05:10:07.975Z,210
2017-05-24T05:10:48.380Z,215
2017-05-24T05:11:28.810Z,215
2017-05-24T05:12:09.220Z,215
2017-05-24T05:14:47.508Z,230
2017-05-24T05:15:27.972Z,235
2017-05-24T05:16:08.402Z,240
2017-05-24T05:16:48.777Z,240
2017-05-24T05:17:29.208Z,245
2017-05-24T05:18:09.651Z,245
2017-05-24T05:18:50.135Z,245
2017-05-24T05:19:30.499Z,245
2017-05-24T05:20:13.172Z,250
2017-05-24T05:20:53.596Z,250
2017-05-24T05:21:34.051Z,250
2017-05-24T05:22:14.471Z,255
2017-05-24T05:22:55.656Z,260
2017-05-24T05:23:36.236Z,270
2017-05-24T05:24:16.875Z,275
2017-05-24T05:24:57.339Z,280
2017-05-24T05:25:37.754Z,290
2017-05-24T05:26:18.201Z,295
2017-05-24T05:26:58.623Z,300
2017-05-24T05:27:39.030Z,310
2017-05-24T05:28:19.469Z,305
2017-05-24T05:28:59.925Z,300
2017-05-24T05:29:40.370Z,290
2017-05-24T05:30:24.337Z,315
2017-05-24T05:31:06.320Z,300
2017-05-24T05:31:46.683Z,295
2017-05-24T05:32:27.767Z,290
2017-05-24T05:33:14.652Z,290
2017-05-24T05:33:56.153Z,300
2017-05-24T05:34:40.170Z,290
2017-05-24T05:39:04.845Z,355
2017-05-24T05:39:45.736Z,345
2017-05-24T05:40:26.171Z,340
2017-05-24T05:41:06.573Z,320
2017-05-24T05:41:46.986Z,320
2017-05-24T05:42:27.413Z,305
2017-05-24T05:43:07.773Z,290
2017-05-24T05:43:48.208Z,285
2017-05-24T05:44:28.678Z,260
2017-05-24T05:45:09.698Z,280
2017-05-24T05:45:50.133Z,290
2017-05-24T05:46:30.556Z,295
2017-05-24T05:47:10.984Z,275
2017-05-24T05:47:51.428Z,295
2017-05-24T05:48:31.925Z,310
2017-05-24T05:49:12.319Z,305
2017-05-24T05:49:52.747Z,290
2017-05-24T05:50:33.126Z,305
2017-05-24T05:51:13.564Z,280
2017-05-24T05:51:54.004Z,240
2017-05-24T05:52:34.399Z,250
2017-05-24T05:53:14.790Z,265
2017-05-24T05:53:55.193Z,300
2017-05-24T05:54:35.591Z,310
2017-05-24T05:55:15.983Z,320
2017-05-24T05:55:56.439Z,320
2017-05-24T05:56:37.638Z,325
2017-05-24T05:57:18.075Z,325
2017-05-24T05:57:58.514Z,325
2017-05-24T05:58:39.598Z,325
2017-05-24T05:59:20.011Z,310
2017-05-24T06:00:00.433Z,305
2017-05-24T06:00:40.935Z,315
2017-05-24T06:01:23.884Z,330
2017-05-24T06:02:04.322Z,345
2017-05-24T06:02:44.734Z,350
2017-05-24T06:03:25.165Z,345
2017-05-24T06:04:05.599Z,355
2017-05-24T06:04:46.001Z,360
2017-05-24T06:05:26.490Z,365
2017-05-24T06:06:06.862Z,370
2017-05-24T06:06:47.304Z,370
2017-05-24T06:07:27.747Z,375
2017-05-24T06:08:08.145Z,375
2017-05-24T06:08:48.582Z,370
2017-05-24T06:09:28.979Z,370
2017-05-24T06:10:09.446Z,365
2017-05-24T06:10:49.841Z,370
2017-05-24T06:11:30.251Z,370
2017-05-24T06:12:10.683Z,365
2017-05-24T06:12:51.214Z,365
2017-05-24T06:13:31.696Z,375
2017-05-24T06:14:12.212Z,370
2017-05-24T06:14:52.637Z,375
2017-05-24T06:15:34.101Z,375
2017-05-24T06:16:14.527Z,375
2017-05-24T06:16:54.956Z,380
2017-05-24T06:17:35.360Z,380
2017-05-24T06:18:15.799Z,380
2017-05-24T06:18:56.646Z,385
2017-05-24T06:19:37.077Z,350
2017-05-24T06:20:17.487Z,390
2017-05-24T06:20:58.237Z,390
2017-05-24T06:21:38.642Z,400
2017-05-24T06:22:19.098Z,375
2017-05-24T06:22:59.547Z,390
2017-05-24T06:23:40.001Z,400
2017-05-24T06:24:20.457Z,400
2017-05-24T06:25:01.069Z,360
2017-05-24T06:25:41.446Z,270
2017-05-24T06:26:21.861Z,255
2017-05-24T06:27:02.249Z,235
2017-05-24T06:27:42.693Z,240
2017-05-24T06:28:23.097Z,260
2017-05-24T06:29:03.499Z,315
2017-05-24T06:29:43.917Z,380
2017-05-24T06:30:24.343Z,360
2017-05-24T06:31:04.744Z,360
2017-05-24T06:31:45.164Z,320
2017-05-24T06:32:25.606Z,380
2017-05-24T06:33:06.018Z,345
2017-05-24T06:33:47.395Z,310
2017-05-24T06:34:27.852Z,255
2017-05-24T06:35:08.339Z,260
2017-05-24T06:35:48.759Z,385
2017-05-24T06:38:06.905Z,425
2017-05-24T06:38:47.325Z,380
2017-05-24T06:39:27.750Z,440
2017-05-24T06:40:08.282Z,440
2017-05-24T06:40:48.690Z,440
2017-05-24T06:41:29.133Z,440
2017-05-24T06:42:09.537Z,440
2017-05-24T06:42:49.985Z,440
2017-05-24T06:43:30.405Z,440
2017-05-24T06:44:10.835Z,445
2017-05-24T06:44:51.287Z,445
2017-05-24T06:45:31.717Z,450
2017-05-24T06:46:12.130Z,455
2017-05-24T06:46:52.517Z,455
2017-05-24T06:47:32.944Z,460
2017-05-24T06:48:13.358Z,460
2017-05-24T06:48:53.902Z,465
2017-05-24T06:49:34.235Z,470
2017-05-24T06:50:14.656Z,465
2017-05-24T06:50:55.092Z,465
2017-05-24T06:51:35.533Z,470
2017-05-24T06:52:15.961Z,475
2017-05-24T06:52:56.407Z,475
2017-05-24T06:53:36.802Z,475
2017-05-24T06:54:17.233Z,480
2017-05-24T06:54:57.663Z,485
2017-05-24T06:55:38.064Z,485
2017-05-24T06:56:18.491Z,490
2017-05-24T06:56:58.932Z,495
2017-05-24T06:57:39.369Z,505
2017-05-24T06:58:19.830Z,515
2017-05-24T06:59:00.184Z,520
2017-05-24T06:59:40.619Z,525
2017-05-24T07:00:21.067Z,530
2017-05-24T07:01:01.478Z,535
2017-05-24T07:01:41.864Z,540
2017-05-24T07:02:22.325Z,550
2017-05-24T07:03:02.755Z,560
2017-05-24T07:03:43.134Z,565
2017-05-24T07:04:23.571Z,595
2017-05-24T07:05:03.976Z,615
2017-05-24T07:05:44.411Z,645
2017-05-24T07:06:24.836Z,655
2017-05-24T07:07:05.243Z,670
2017-05-24T07:07:45.661Z,690
2017-05-24T07:08:26.068Z,695
2017-05-24T07:09:06.473Z,720
2017-05-24T07:09:46.912Z,745
2017-05-24T07:10:27.347Z,770
2017-05-24T07:11:07.796Z,795
2017-05-24T07:11:48.176Z,810
2017-05-24T07:12:28.633Z,840
2017-05-24T07:13:09.065Z,865
2017-05-24T07:13:49.515Z,870
2017-05-24T07:16:22.577Z,940
2017-05-24T07:17:03.550Z,965
2017-05-24T07:17:43.974Z,985
2017-05-24T07:18:24.391Z,1010
2017-05-24T07:19:05.081Z,1030
2017-05-24T07:19:45.777Z,1065
2017-05-24T07:20:26.287Z,1085
2017-05-24T07:21:06.603Z,1130
2017-05-24T07:21:48.460Z,1215
2017-05-24T07:22:28.913Z,1515
2017-05-24T07:23:09.316Z,2040
2017-05-24T07:23:49.732Z,2425
2017-05-24T07:24:30.122Z,2365
2017-05-24T07:25:11.008Z,2420
2017-05-24T07:25:51.624Z,2520
2017-05-24T07:26:32.544Z,2670
2017-05-24T07:27:13.051Z,2745
2017-05-24T07:27:53.472Z,2725
2017-05-24T07:28:33.917Z,2710
2017-05-24T07:31:12.280Z,2860
2017-05-24T07:31:52.714Z,2810
2017-05-24T07:32:33.167Z,2935
2017-05-24T07:33:13.655Z,2670
2017-05-24T07:33:54.067Z,2780
2017-05-24T07:36:32.358Z,2775
2017-05-24T07:38:45.346Z,2885
2017-05-24T07:39:25.785Z,2905
2017-05-24T07:40:06.229Z,2895
2017-05-24T07:40:46.671Z,2690
2017-05-24T07:41:27.140Z,2290
2017-05-24T07:42:07.567Z,3055
2017-05-24T07:42:47.979Z,3075
2017-05-24T07:43:28.580Z,3025
2017-05-24T07:44:08.841Z,2845
2017-05-24T07:44:49.228Z,2915
2017-05-24T07:45:29.710Z,2645
2017-05-24T07:46:10.101Z,2390
2017-05-24T07:46:50.564Z,2575
2017-05-24T07:47:30.984Z,2545
2017-05-24T07:50:04.312Z,2755
2017-05-24T07:50:44.764Z,2870
2017-05-24T07:51:25.209Z,2920
2017-05-24T07:52:05.697Z,2870
2017-05-24T07:52:46.089Z,2620
2017-05-24T07:53:26.551Z,2440
2017-05-24T07:54:06.971Z,2275
2017-05-24T07:54:47.410Z,2465
2017-05-24T07:55:27.827Z,2720
2017-05-24T07:56:08.383Z,2740
2017-05-24T07:56:48.822Z,2295
2017-05-24T07:57:29.325Z,2445
2017-05-24T07:58:10.194Z,2575
2017-05-24T07:58:50.638Z,2600
2017-05-24T07:59:31.096Z,2350
2017-05-24T08:00:11.529Z,2450
2017-05-24T08:00:51.965Z,1885
2017-05-24T08:01:32.432Z,2820
2017-05-24T08:02:12.869Z,2615
2017-05-24T08:02:53.318Z,2815
2017-05-24T08:03:33.717Z,3055
2017-05-24T08:05:51.691Z,2845
2017-05-24T08:06:32.182Z,1770
2017-05-24T08:07:13.485Z,1575
2017-05-24T08:07:54.533Z,1200
2017-05-24T08:08:35.637Z,1185
2017-05-24T08:09:16.064Z,1360
2017-05-24T08:09:57.039Z,1265
2017-05-24T08:10:37.462Z,1290
2017-05-24T08:11:21.533Z,1410
2017-05-24T08:12:04.575Z,1615
2017-05-24T08:12:44.961Z,2075
2017-05-24T08:13:25.393Z,2635
2017-05-24T08:14:05.838Z,2990
2017-05-24T08:14:46.293Z,2980
2017-05-24T08:15:26.745Z,2910
2017-05-24T08:16:07.189Z,2975
2017-05-24T08:16:47.639Z,2875
2017-05-24T08:17:28.062Z,3260
2017-05-24T08:18:08.464Z,3105
2017-05-24T08:18:48.926Z,3280
2017-05-24T08:19:29.356Z,3110
2017-05-24T08:20:10.307Z,1895
2017-05-24T08:20:52.490Z,1600
2017-05-24T08:21:32.899Z,1705
2017-05-24T08:22:13.309Z,1585
2017-05-24T08:22:54.706Z,1750
2017-05-24T08:23:37.628Z,1970
2017-05-24T08:24:18.076Z,2290
2017-05-24T08:24:58.476Z,1720
2017-05-24T08:25:38.911Z,1375
2017-05-24T08:26:19.310Z,1645
2017-05-24T08:26:59.755Z,2245
2017-05-24T08:27:40.215Z,3685
2017-05-24T08:28:20.648Z,4000
2017-05-24T08:29:01.661Z,2490
2017-05-24T08:29:42.082Z,4085
2017-05-24T08:30:22.512Z,2135
2017-05-24T08:31:02.943Z,1435
2017-05-24T08:31:43.406Z,2185
2017-05-24T08:32:23.794Z,1235
2017-05-24T08:33:04.222Z,1065
2017-05-24T08:33:44.611Z,945
2017-05-24T08:34:25.034Z,870
2017-05-24T08:35:05.451Z,915
2017-05-24T08:35:45.889Z,945
2017-05-24T08:36:26.352Z,840
2017-05-24T08:37:06.784Z,840
2017-05-24T08:37:47.204Z,885
2017-05-24T08:38:27.642Z,870
2017-05-24T08:39:08.098Z,970
2017-05-24T08:39:48.526Z,975
2017-05-24T08:40:28.957Z,995
2017-05-24T08:41:09.373Z,970
2017-05-24T08:41:49.877Z,940
2017-05-24T08:42:30.229Z,905
2017-05-24T08:44:58.608Z,1240
2017-05-24T08:45:39.071Z,1105
2017-05-24T08:46:19.581Z,1115
2017-05-24T08:46:59.974Z,1300
2017-05-24T08:47:40.400Z,1930
2017-05-24T08:48:20.824Z,1290
2017-05-24T08:49:01.239Z,1380
2017-05-24T08:49:41.600Z,1640
2017-05-24T08:50:22.064Z,2350
2017-05-24T08:51:02.560Z,2140
2017-05-24T08:51:42.948Z,1540
2017-05-24T08:52:23.421Z,1450
2017-05-24T08:53:03.792Z,1705
2017-05-24T08:53:44.233Z,2610
2017-05-24T08:54:25.395Z,1580
2017-05-24T08:55:05.838Z,1395
2017-05-24T08:55:46.252Z,1605
2017-05-24T08:56:28.347Z,1540
2017-05-24T08:57:08.781Z,1720
2017-05-24T08:57:49.274Z,1890
2017-05-24T08:58:29.658Z,2150
2017-05-24T08:59:10.184Z,2145
2017-05-24T08:59:50.569Z,1620
2017-05-24T09:00:31.074Z,1250
2017-05-24T09:01:11.441Z,1190
2017-05-24T09:01:51.867Z,1270
2017-05-24T09:02:32.320Z,1255
2017-05-24T09:03:12.743Z,1210
2017-05-24T09:03:53.188Z,1160
2017-05-24T09:04:33.618Z,1330
2017-05-24T09:05:14.066Z,1645
2017-05-24T09:05:54.549Z,1915
2017-05-24T09:06:34.978Z,1980
2017-05-24T09:07:15.401Z,1880
2017-05-24T09:09:43.414Z,1650
2017-05-24T09:10:23.852Z,1765
2017-05-24T09:12:56.925Z,980
2017-05-24T09:13:37.427Z,1060
2017-05-24T09:14:17.802Z,1125
2017-05-24T09:14:58.233Z,975
2017-05-24T09:15:38.636Z,1070
2017-05-24T09:16:19.092Z,1635
2017-05-24T09:16:59.544Z,2845
2017-05-24T09:17:39.922Z,1575
2017-05-24T09:18:20.625Z,1445
2017-05-24T09:19:01.029Z,1550
2017-05-24T09:19:41.463Z,3125
2017-05-24T09:20:21.971Z,2540
2017-05-24T09:21:02.418Z,1895
2017-05-24T09:21:42.846Z,1260
2017-05-24T09:22:23.298Z,1715
2017-05-24T09:23:03.765Z,1960
2017-05-24T09:23:44.142Z,2905
2017-05-24T09:24:24.530Z,3005
2017-05-24T09:26:43.294Z,3160
2017-05-24T09:27:23.774Z,3650
2017-05-24T09:29:36.589Z,4175
2017-05-24T09:32:15.098Z,3785
2017-05-24T09:32:55.710Z,3245
2017-05-24T09:33:36.169Z,1970
2017-05-24T09:34:16.587Z,1700
2017-05-24T09:34:57.033Z,1605
2017-05-24T09:35:37.491Z,1795
2017-05-24T09:36:17.932Z,2580
2017-05-24T09:36:58.386Z,3970
2017-05-24T09:37:38.829Z,1530
2017-05-24T09:38:19.248Z,1535
2017-05-24T09:38:59.694Z,1415
2017-05-24T09:39:40.115Z,1155
2017-05-24T09:40:20.552Z,1060
2017-05-24T09:41:00.998Z,1005
2017-05-24T09:41:41.424Z,975
2017-05-24T09:42:21.840Z,920
2017-05-24T09:43:02.257Z,865
2017-05-24T09:43:42.671Z,890
2017-05-24T09:44:23.117Z,865
2017-05-24T09:45:03.570Z,855
2017-05-24T09:45:43.945Z,870
2017-05-24T09:46:24.354Z,885
2017-05-24T09:48:42.439Z,600
2017-05-24T09:49:22.865Z,510
2017-05-24T09:50:03.275Z,525
2017-05-24T09:50:43.736Z,720
2017-05-24T09:51:24.112Z,915
2017-05-24T09:52:04.545Z,1020
2017-05-24T09:52:44.961Z,1060
2017-05-24T09:55:18.090Z,1190
2017-05-24T09:55:58.517Z,1055
2017-05-24T09:56:38.941Z,980
2017-05-24T09:57:19.401Z,935
2017-05-24T09:57:59.812Z,940
2017-05-24T09:58:40.197Z,1015
2017-05-24T10:01:18.437Z,935
2017-05-24T10:01:58.877Z,1090
2017-05-24T10:02:39.345Z,1230
2017-05-24T10:03:19.717Z,1370
2017-05-24T10:04:00.152Z,1465
2017-05-24T10:04:40.563Z,1490
2017-05-24T10:05:21.015Z,1435
2017-05-24T10:06:01.416Z,1265
2017-05-24T10:06:41.844Z,1210
2017-05-24T10:07:22.288Z,1175
2017-05-24T10:08:02.724Z,1045
2017-05-24T10:08:43.126Z,900
2017-05-24T10:09:23.563Z,795
2017-05-24T10:10:03.991Z,745
2017-05-24T10:10:44.410Z,740
2017-05-24T10:11:24.836Z,775
2017-05-24T10:12:05.254Z,790
2017-05-24T10:12:45.728Z,765
2017-05-24T10:13:26.160Z,725
2017-05-24T10:14:06.603Z,690
2017-05-24T10:14:47.068Z,680
2017-05-24T10:15:27.485Z,705
2017-05-24T10:16:07.894Z,760
2017-05-24T10:16:48.347Z,810
2017-05-24T10:17:28.770Z,835
2017-05-24T10:20:01.877Z,745
2017-05-24T10:20:42.342Z,745
2017-05-24T10:21:22.796Z,720
2017-05-24T10:22:03.186Z,650
2017-05-24T10:22:43.630Z,560
2017-05-24T10:23:24.072Z,480
2017-05-24T10:24:04.518Z,440
2017-05-24T10:24:44.913Z,460